createdAt,value
2022-08-16T00:02:32.373Z,24.72
2022-08-16T00:05:00.161Z,23.83
2022-08-16T00:07:29.806Z,24.90
2022-08-16T00:10:02.211Z,24.88
2022-08-16T00:12:30.722Z,23.93
2022-08-16T00:15:05.448Z,24.14
2022-08-16T00:17:56.290Z,24.72
2022-08-16T00:20:31.187Z,24.71
2022-08-16T00:23:02.461Z,23.77
2022-08-16T00:26:33.463Z,23.67
2022-08-16T00:28:18.826Z,24.71
2022-08-16T00:30:45.693Z,24.72
2022-08-16T00:33:18.685Z,24.70
2022-08-16T00:35:50.057Z,24.69
2022-08-16T00:38:41.142Z,24.51
2022-08-16T00:41:05.999Z,24.60
2022-08-16T00:43:42.852Z,24.45
2022-08-16T00:46:34.032Z,24.51
2022-08-16T00:48:57.158Z,23.94
2022-08-16T00:51:25.781Z,24.47
2022-08-16T00:53:59.445Z,23.78
2022-08-16T00:56:56.660Z,24.27
2022-08-16T00:59:24.992Z,24.13
2022-08-16T01:01:55.012Z,24.35
2022-08-16T01:04:30.032Z,24.00
2022-08-16T01:07:02.813Z,24.37
2022-08-16T01:09:37.553Z,23.46
2022-08-16T01:12:10.870Z,24.39
2022-08-16T01:14:57.442Z,24.37
2022-08-16T01:17:24.807Z,23.65
2022-08-16T01:19:57.023Z,24.30
2022-08-16T01:22:47.008Z,24.29
2022-08-16T01:25:34.032Z,24.25
2022-08-16T01:28:07.502Z,23.28
2022-08-16T01:30:50.011Z,24.12
2022-08-16T01:33:19.240Z,24.08
2022-08-16T01:36:11.596Z,24.02
2022-08-16T01:38:53.112Z,22.81
2022-08-16T01:41:30.758Z,23.98
2022-08-16T01:44:01.630Z,23.98
2022-08-16T01:46:40.049Z,23.28
2022-08-16T01:49:42.777Z,23.15
2022-08-16T01:52:28.091Z,23.65
2022-08-16T01:55:18.119Z,23.57
2022-08-16T01:57:53.309Z,23.78
2022-08-16T02:00:21.617Z,22.92
2022-08-16T02:02:57.707Z,23.71
2022-08-16T02:05:24.453Z,22.93
2022-08-16T02:07:53.654Z,23.52
2022-08-16T02:10:22.176Z,23.69
2022-08-16T02:12:55.803Z,22.89
2022-08-16T02:15:35.654Z,23.64
2022-08-16T02:18:12.739Z,23.57
2022-08-16T02:20:42.472Z,23.43
2022-08-16T02:23:09.967Z,23.27
2022-08-16T02:25:52.077Z,23.48
2022-08-16T02:28:23.613Z,23.46
2022-08-16T02:30:54.558Z,23.43
2022-08-16T02:33:24.359Z,23.06
2022-08-16T02:35:59.987Z,22.98
2022-08-16T02:38:32.188Z,22.25
2022-08-16T02:41:01.871Z,23.17
2022-08-16T02:43:33.151Z,23.21
2022-08-16T02:46:07.443Z,23.18
2022-08-16T02:48:38.480Z,22.92
2022-08-16T02:51:11.266Z,23.11
2022-08-16T02:53:44.797Z,23.04
2022-08-16T02:56:15.280Z,22.98
2022-08-16T02:58:44.406Z,22.55
2022-08-16T03:01:25.114Z,22.69
2022-08-16T03:04:29.001Z,22.67
2022-08-16T03:06:56.882Z,22.79
2022-08-16T03:09:37.296Z,22.82
2022-08-16T03:12:05.376Z,22.77
2022-08-16T03:14:35.369Z,21.98
2022-08-16T03:17:04.903Z,22.66
2022-08-16T03:19:48.828Z,22.15
2022-08-16T03:22:28.223Z,22.45
2022-08-16T03:25:00.835Z,22.53
2022-08-16T03:27:36.029Z,21.63
2022-08-16T03:30:29.264Z,22.55
2022-08-16T03:32:59.330Z,22.17
2022-08-16T03:35:34.676Z,22.57
2022-08-16T03:38:33.092Z,22.10
2022-08-16T03:41:05.435Z,22.58
2022-08-16T03:43:54.651Z,22.61
2022-08-16T03:46:47.861Z,22.61
2022-08-16T03:49:13.453Z,22.54
2022-08-16T03:51:43.937Z,21.75
2022-08-16T03:54:20.317Z,21.85
2022-08-16T03:56:56.844Z,22.38
2022-08-16T03:59:24.812Z,22.67
2022-08-16T04:01:56.757Z,22.71
2022-08-16T04:04:33.302Z,22.77
2022-08-16T04:07:04.264Z,22.86
2022-08-16T04:09:38.791Z,22.94
2022-08-16T04:12:53.742Z,22.81
2022-08-16T04:15:07.994Z,23.00
2022-08-16T04:17:42.177Z,21.99
2022-08-16T04:20:31.204Z,22.77
2022-08-16T04:22:59.184Z,23.08
2022-08-16T04:25:29.166Z,23.13
2022-08-16T04:27:56.910Z,23.18
2022-08-16T04:30:32.478Z,23.22
2022-08-16T04:33:04.432Z,22.98
2022-08-16T04:35:39.496Z,23.15
2022-08-16T04:38:21.202Z,23.16
2022-08-16T04:40:51.575Z,23.00
2022-08-16T04:43:23.732Z,23.16
2022-08-16T04:46:00.148Z,23.19
2022-08-16T04:48:33.937Z,23.21
2022-08-16T04:51:12.118Z,23.13
2022-08-16T04:53:50.777Z,23.42
2022-08-16T04:56:19.958Z,23.34
2022-08-16T04:58:47.751Z,23.55
2022-08-16T05:01:20.362Z,22.84
2022-08-16T05:04:01.011Z,23.10
2022-08-16T05:06:45.009Z,23.66
2022-08-16T05:09:25.669Z,23.69
2022-08-16T05:11:58.215Z,22.71
2022-08-16T05:14:42.305Z,23.81
2022-08-16T05:17:14.536Z,23.86
2022-08-16T05:19:46.533Z,23.93
2022-08-16T05:22:24.940Z,23.94
2022-08-16T05:24:56.716Z,23.94
2022-08-16T05:27:24.065Z,23.24
2022-08-16T05:29:57.877Z,23.97
2022-08-16T05:32:32.650Z,23.91
2022-08-16T05:35:11.004Z,24.09
2022-08-16T05:37:43.468Z,24.18
2022-08-16T05:40:14.377Z,24.32
2022-08-16T05:42:47.692Z,24.45
2022-08-16T05:45:21.379Z,24.52
2022-08-16T05:48:00.120Z,24.42
2022-08-16T05:50:37.645Z,24.74
2022-08-16T05:53:08.746Z,24.84
2022-08-16T05:55:46.461Z,24.46
2022-08-16T05:58:31.705Z,25.11
2022-08-16T06:01:00.764Z,25.27
2022-08-16T06:03:34.258Z,24.91
2022-08-16T06:06:08.514Z,25.42
2022-08-16T06:08:42.087Z,25.55
2022-08-16T06:11:13.460Z,25.53
2022-08-16T06:13:43.479Z,25.53
2022-08-16T06:16:19.390Z,25.81
2022-08-16T06:18:53.523Z,25.47
2022-08-16T06:21:22.706Z,25.33
2022-08-16T06:23:57.165Z,25.80
2022-08-16T06:26:37.022Z,25.58
2022-08-16T06:29:07.836Z,26.28
2022-08-16T06:31:49.145Z,25.62
2022-08-16T06:34:56.044Z,26.13
2022-08-16T06:37:12.251Z,26.65
2022-08-16T06:39:49.596Z,26.79
2022-08-16T06:42:47.027Z,26.93
2022-08-16T06:45:37.996Z,27.02
2022-08-16T06:48:20.215Z,27.15
2022-08-16T06:51:00.363Z,27.20
2022-08-16T06:53:27.426Z,27.26
2022-08-16T06:56:14.228Z,27.31
2022-08-16T06:59:13.133Z,27.39
2022-08-16T07:01:54.307Z,27.18
2022-08-16T07:04:32.669Z,27.39
2022-08-16T07:07:11.391Z,27.31
2022-08-16T07:09:41.244Z,27.53
2022-08-16T07:12:09.281Z,27.59
2022-08-16T07:14:41.231Z,27.66
2022-08-16T07:17:11.510Z,27.76
2022-08-16T07:20:02.963Z,27.85
2022-08-16T07:22:52.533Z,27.87
2022-08-16T07:25:27.952Z,27.50
2022-08-16T07:27:54.977Z,27.75
2022-08-16T07:30:39.470Z,27.67
2022-08-16T07:33:52.576Z,27.75
2022-08-16T07:36:09.775Z,26.37
2022-08-16T07:38:44.315Z,28.14
2022-08-16T07:41:14.935Z,28.09
2022-08-16T07:43:49.236Z,27.70
2022-08-16T07:46:39.277Z,28.15
2022-08-16T07:49:23.947Z,27.88
2022-08-16T07:51:54.519Z,28.02
2022-08-16T07:54:31.950Z,28.00
2022-08-16T07:57:03.582Z,27.99
2022-08-16T07:59:42.685Z,27.32
2022-08-16T08:02:20.437Z,28.02
2022-08-16T08:04:51.937Z,28.04
2022-08-16T08:07:19.227Z,28.00
2022-08-16T08:09:49.243Z,27.36
2022-08-16T08:12:32.221Z,27.84
2022-08-16T08:15:11.520Z,27.09
2022-08-16T08:17:44.148Z,27.58
2022-08-16T08:20:28.755Z,27.09
2022-08-16T08:23:01.995Z,27.55
2022-08-16T08:25:53.642Z,26.85
2022-08-16T08:28:23.995Z,27.57
2022-08-16T08:31:04.308Z,27.79
2022-08-16T08:33:35.531Z,27.89
2022-08-16T08:36:11.523Z,27.97
2022-08-16T08:38:52.375Z,28.10
2022-08-16T08:41:28.467Z,28.09
2022-08-16T08:43:57.496Z,27.44
2022-08-16T08:46:26.179Z,27.64
2022-08-16T08:48:59.886Z,28.51
2022-08-16T08:51:38.373Z,27.72
2022-08-16T08:54:20.479Z,28.15
2022-08-16T08:56:52.382Z,28.47
2022-08-16T08:59:50.837Z,28.90
2022-08-16T09:02:20.109Z,28.75
2022-08-16T09:04:57.250Z,28.48
2022-08-16T09:07:28.196Z,28.65
2022-08-16T09:10:00.946Z,29.33
2022-08-16T09:12:37.204Z,29.28
2022-08-16T09:15:10.034Z,29.19
2022-08-16T09:17:51.830Z,29.65
2022-08-16T09:20:25.539Z,29.71
2022-08-16T09:22:54.479Z,29.12
2022-08-16T09:25:33.931Z,29.91
2022-08-16T09:28:09.493Z,29.19
2022-08-16T09:31:04.997Z,29.76
2022-08-16T09:33:37.050Z,30.18
2022-08-16T09:36:05.508Z,30.37
2022-08-16T09:38:44.029Z,30.43
2022-08-16T09:41:14.916Z,30.24
2022-08-16T09:43:57.977Z,30.83
2022-08-16T09:46:44.496Z,30.96
2022-08-16T09:49:14.281Z,31.16
2022-08-16T09:51:42.537Z,31.26
2022-08-16T09:54:16.604Z,31.42
2022-08-16T09:56:51.619Z,31.60
2022-08-16T09:59:21.191Z,31.36
2022-08-16T10:01:51.970Z,31.75
2022-08-16T10:04:29.868Z,31.87
2022-08-16T10:07:02.430Z,31.71
2022-08-16T10:09:53.794Z,32.10
2022-08-16T10:12:45.494Z,31.34
2022-08-16T10:15:21.962Z,31.63
2022-08-16T10:18:00.770Z,32.39
2022-08-16T10:20:33.966Z,32.38
2022-08-16T10:23:06.962Z,31.91
2022-08-16T10:27:20.022Z,31.92
2022-08-16T10:28:40.310Z,32.88
2022-08-16T10:31:16.979Z,33.17
2022-08-16T10:34:01.540Z,33.39
2022-08-16T10:36:39.132Z,33.50
2022-08-16T10:39:08.508Z,33.36
2022-08-16T10:41:36.111Z,33.87
2022-08-16T10:44:09.666Z,33.94
2022-08-16T10:46:41.737Z,34.06
2022-08-16T10:49:16.794Z,34.53
2022-08-16T10:52:02.364Z,33.39
2022-08-16T10:54:31.545Z,33.87
2022-08-16T10:57:00.769Z,34.06
2022-08-16T10:59:39.222Z,33.74
2022-08-16T11:02:59.079Z,35.01
2022-08-16T11:05:11.523Z,35.15
2022-08-16T11:07:51.464Z,35.18
2022-08-16T11:13:58.138Z,34.05
2022-08-16T11:17:02.262Z,34.00
2022-08-16T11:19:06.206Z,34.16
2022-08-16T11:24:39.205Z,33.84
2022-08-16T11:27:32.508Z,33.53
2022-08-16T11:29:56.690Z,33.25
2022-08-16T11:32:31.847Z,32.91
2022-08-16T11:35:10.936Z,32.66
2022-08-16T11:40:52.602Z,32.24
2022-08-16T11:43:26.395Z,32.30
2022-08-16T11:45:55.171Z,32.27
2022-08-16T11:48:33.548Z,30.99
2022-08-16T11:51:01.567Z,32.19
2022-08-16T11:53:29.356Z,32.09
2022-08-16T11:56:03.079Z,31.24
2022-08-16T11:58:34.001Z,31.68
2022-08-16T12:01:03.314Z,31.58
2022-08-16T12:03:35.236Z,31.44
2022-08-16T12:06:24.945Z,31.33
2022-08-16T12:09:00.892Z,31.37
2022-08-16T12:11:33.227Z,31.49
2022-08-16T12:14:05.015Z,31.54
2022-08-16T12:16:34.597Z,31.39
2022-08-16T12:19:07.404Z,31.17
2022-08-16T12:21:58.569Z,31.11
2022-08-16T12:24:29.370Z,31.01
2022-08-16T12:27:00.182Z,30.60
2022-08-16T12:29:29.422Z,31.13
2022-08-16T12:32:01.382Z,31.26
2022-08-16T12:34:50.578Z,31.11
2022-08-16T12:37:21.866Z,30.56
2022-08-16T12:39:54.934Z,30.87
2022-08-16T12:42:35.491Z,29.94
2022-08-16T12:45:09.571Z,30.78
2022-08-16T12:48:22.205Z,29.89
2022-08-16T12:50:49.255Z,30.17
2022-08-16T12:53:20.642Z,30.46
2022-08-16T12:55:48.190Z,30.34
2022-08-16T12:58:48.733Z,30.21
2022-08-16T13:01:02.838Z,30.04
2022-08-16T13:03:39.645Z,29.54
2022-08-16T13:06:07.872Z,29.27
2022-08-16T13:08:34.620Z,28.72
2022-08-16T13:11:04.589Z,29.66
2022-08-16T13:13:37.132Z,29.73
2022-08-16T13:16:15.356Z,29.57
2022-08-16T13:18:48.412Z,30.00
2022-08-16T13:21:23.451Z,30.85
2022-08-16T13:23:55.475Z,31.63
2022-08-16T13:26:26.223Z,32.60
2022-08-16T13:28:55.853Z,32.62
2022-08-16T13:31:24.111Z,31.16
2022-08-16T13:33:51.941Z,32.26
2022-08-16T13:36:47.847Z,33.78
2022-08-16T13:39:18.058Z,33.10
2022-08-16T13:41:53.522Z,32.96
2022-08-16T13:44:21.733Z,33.05
2022-08-16T13:46:48.579Z,32.70
2022-08-16T13:49:17.573Z,32.67
2022-08-16T13:51:49.926Z,32.46
2022-08-16T13:56:49.476Z,32.54
2022-08-16T13:59:21.144Z,32.40
2022-08-16T14:02:02.641Z,32.30
2022-08-16T14:04:33.445Z,32.26
2022-08-16T14:07:02.039Z,32.18
2022-08-16T14:09:31.972Z,32.43
2022-08-16T14:12:09.863Z,32.41
2022-08-16T14:14:45.376Z,32.61
2022-08-16T14:17:16.531Z,32.86
2022-08-16T14:19:44.806Z,32.78
2022-08-16T14:22:30.449Z,32.97
2022-08-16T14:25:00.415Z,34.75
2022-08-16T14:27:29.577Z,36.19
2022-08-16T14:29:59.959Z,35.58
2022-08-16T14:32:33.105Z,35.07
2022-08-16T14:35:04.632Z,35.52
2022-08-16T14:37:34.972Z,35.10
2022-08-16T14:40:03.357Z,33.72
2022-08-16T14:42:30.422Z,34.35
2022-08-16T14:45:02.810Z,33.45
2022-08-16T14:47:34.945Z,33.71
2022-08-16T14:50:02.635Z,32.71
2022-08-16T14:52:53.998Z,32.62
2022-08-16T14:55:16.537Z,30.84
2022-08-16T14:57:46.040Z,31.36
2022-08-16T15:00:17.996Z,30.83
2022-08-16T15:02:47.471Z,30.05
2022-08-16T15:05:20.424Z,30.36
2022-08-16T15:07:52.908Z,30.09
2022-08-16T15:10:24.381Z,29.68
2022-08-16T15:12:56.214Z,29.72
2022-08-16T15:15:26.563Z,29.17
2022-08-16T15:17:56.566Z,28.00
2022-08-16T15:20:32.312Z,29.34
2022-08-16T15:23:01.559Z,28.58
2022-08-16T15:25:34.456Z,29.49
2022-08-16T15:28:23.516Z,29.48
2022-08-16T15:30:59.806Z,29.54
2022-08-16T15:33:28.095Z,29.67
2022-08-16T15:35:55.218Z,30.00
2022-08-16T15:38:54.863Z,29.70
2022-08-16T15:41:53.905Z,30.12
2022-08-16T15:44:23.777Z,29.41
2022-08-16T15:46:58.447Z,30.12
2022-08-16T15:49:37.849Z,30.29
2022-08-16T15:52:29.031Z,30.07
2022-08-16T15:54:57.794Z,29.56
2022-08-16T15:57:28.051Z,29.08
2022-08-16T16:00:04.908Z,29.30
2022-08-16T16:02:43.875Z,28.44
2022-08-16T16:05:14.066Z,29.45
2022-08-16T16:07:55.510Z,29.51
2022-08-16T16:10:28.359Z,29.61
2022-08-16T16:13:00.483Z,29.48
2022-08-16T16:15:32.380Z,29.64
2022-08-16T16:17:59.138Z,29.97
2022-08-16T16:20:32.920Z,29.54
2022-08-16T16:23:10.393Z,30.21
2022-08-16T16:25:40.012Z,30.25
2022-08-16T16:29:05.012Z,30.28
2022-08-16T16:31:04.777Z,30.25
2022-08-16T16:33:38.426Z,30.30
2022-08-16T16:36:07.770Z,29.59
2022-08-16T16:38:39.153Z,30.63
2022-08-16T16:41:14.422Z,30.36
2022-08-16T16:43:45.102Z,30.47
2022-08-16T16:46:40.616Z,30.89
2022-08-16T16:49:06.825Z,30.15
2022-08-16T16:51:40.375Z,28.81
2022-08-16T16:54:09.329Z,30.86
2022-08-16T16:56:49.533Z,30.99
2022-08-16T16:59:18.251Z,31.12
2022-08-16T17:01:59.900Z,31.21
2022-08-16T17:04:37.466Z,30.46
2022-08-16T17:07:10.657Z,31.17
2022-08-16T17:09:40.146Z,31.14
2022-08-16T17:12:08.906Z,30.45
2022-08-16T17:14:38.504Z,31.01
2022-08-16T17:17:11.704Z,30.93
2022-08-16T17:19:41.779Z,30.84
2022-08-16T17:22:16.065Z,30.75
2022-08-16T17:24:50.369Z,30.17
2022-08-16T17:27:33.126Z,30.30
2022-08-16T17:30:16.082Z,30.33
2022-08-16T17:32:48.789Z,30.18
2022-08-16T17:35:21.490Z,29.86
2022-08-16T17:37:51.442Z,29.52
2022-08-16T17:40:34.001Z,28.94
2022-08-16T17:43:10.294Z,29.12
2022-08-16T17:45:39.347Z,28.81
2022-08-16T17:48:11.145Z,29.30
2022-08-16T17:50:38.763Z,29.22
2022-08-16T17:53:06.621Z,28.78
2022-08-16T17:55:39.091Z,28.96
2022-08-16T17:58:19.799Z,28.01
2022-08-16T18:00:54.841Z,28.66
2022-08-16T18:03:40.812Z,28.55
2022-08-16T18:06:16.716Z,28.02
2022-08-16T18:08:43.653Z,28.41
2022-08-16T18:11:12.089Z,27.81
2022-08-16T18:13:45.119Z,28.33
2022-08-16T18:16:17.083Z,28.30
2022-08-16T18:18:46.348Z,27.59
2022-08-16T18:21:33.172Z,28.30
2022-08-16T18:24:03.120Z,27.77
2022-08-16T18:26:30.079Z,28.25
2022-08-16T18:28:59.853Z,28.21
2022-08-16T18:31:26.760Z,27.83
2022-08-16T18:33:55.860Z,28.20
2022-08-16T18:36:24.499Z,28.04
2022-08-16T18:38:52.285Z,28.14
2022-08-16T18:41:20.161Z,27.06
2022-08-16T18:44:22.346Z,27.64
2022-08-16T18:46:33.978Z,27.78
2022-08-16T18:49:03.028Z,27.89
2022-08-16T18:51:31.677Z,27.84
2022-08-16T18:53:58.475Z,27.77
2022-08-16T18:56:55.080Z,27.70
2022-08-16T18:59:15.110Z,27.58
2022-08-16T19:01:41.897Z,27.50
2022-08-16T19:04:55.963Z,26.52
2022-08-16T19:06:55.887Z,27.37
2022-08-16T19:09:22.996Z,27.11
2022-08-16T19:11:52.175Z,27.32
2022-08-16T19:14:29.979Z,27.28
2022-08-16T19:16:57.460Z,27.25
2022-08-16T19:19:24.219Z,27.11
2022-08-16T19:21:53.643Z,27.18
2022-08-16T19:24:23.237Z,27.03
2022-08-16T19:26:59.167Z,26.66
2022-08-16T19:29:29.094Z,26.49
2022-08-16T19:31:56.263Z,26.93
2022-08-16T19:34:23.204Z,26.38
2022-08-16T19:36:50.107Z,26.84
2022-08-16T19:39:19.900Z,26.80
2022-08-16T19:41:53.182Z,26.63
2022-08-16T19:44:22.668Z,26.65
2022-08-16T19:46:49.867Z,26.70
2022-08-16T19:49:17.224Z,26.14
2022-08-16T19:51:45.465Z,26.48
2022-08-16T19:54:15.067Z,26.44
2022-08-16T19:56:44.087Z,26.39
2022-08-16T19:59:20.439Z,26.36
2022-08-16T20:01:51.179Z,26.01
2022-08-16T20:04:22.840Z,26.29
2022-08-16T20:06:50.867Z,26.09
2022-08-16T20:09:19.590Z,25.33
2022-08-16T20:11:47.849Z,26.11
2022-08-16T20:14:24.324Z,25.89
2022-08-16T20:16:56.943Z,25.83
2022-08-16T20:19:25.146Z,25.80
2022-08-16T20:21:56.592Z,25.90
2022-08-16T20:24:34.784Z,25.46
2022-08-16T20:27:05.330Z,25.81
2022-08-16T20:29:32.129Z,25.34
2022-08-16T20:31:59.043Z,25.05
2022-08-16T20:34:26.280Z,25.24
2022-08-16T20:36:57.387Z,25.66
2022-08-16T20:39:27.530Z,25.42
2022-08-16T20:41:54.361Z,25.33
2022-08-16T20:44:22.955Z,25.48
2022-08-16T20:46:52.876Z,25.45
2022-08-16T20:49:19.561Z,24.91
2022-08-16T20:51:50.758Z,25.36
2022-08-16T20:54:20.442Z,24.80
2022-08-16T20:56:50.562Z,24.70
2022-08-16T20:59:17.580Z,24.11
2022-08-16T21:01:50.356Z,25.05
2022-08-16T21:04:25.286Z,25.08
2022-08-16T21:06:56.254Z,24.72
2022-08-16T21:09:31.342Z,25.03
2022-08-16T21:12:00.986Z,25.04
2022-08-16T21:14:33.916Z,24.86
2022-08-16T21:17:04.261Z,24.38
2022-08-16T21:19:31.163Z,24.12
2022-08-16T21:21:57.892Z,24.39
2022-08-16T21:24:24.901Z,24.73
2022-08-16T21:26:56.009Z,24.78
2022-08-16T21:29:30.596Z,24.74
2022-08-16T21:32:12.799Z,24.38
2022-08-16T21:34:39.947Z,24.62
2022-08-16T21:37:11.520Z,24.65
2022-08-16T21:39:38.868Z,24.61
2022-08-16T21:42:19.117Z,24.59
2022-08-16T21:44:48.798Z,24.54
2022-08-16T21:47:15.582Z,24.51
2022-08-16T21:49:42.873Z,24.52
2022-08-16T21:52:10.139Z,23.93
2022-08-16T21:54:52.719Z,24.44
2022-08-16T21:57:26.365Z,24.31
2022-08-16T22:00:06.024Z,24.23
2022-08-16T22:02:41.644Z,24.34
2022-08-16T22:05:08.609Z,24.32
2022-08-16T22:07:37.779Z,24.31
2022-08-16T22:11:06.347Z,22.42
2022-08-16T22:12:55.011Z,23.72
2022-08-16T22:15:25.587Z,23.44
2022-08-16T22:17:58.307Z,24.31
2022-08-16T22:20:27.729Z,24.28
2022-08-16T22:23:25.060Z,24.27
2022-08-16T22:25:54.678Z,24.16
2022-08-16T22:28:24.349Z,23.39
2022-08-16T22:30:51.715Z,24.13
2022-08-16T22:33:24.758Z,24.13
2022-08-16T22:35:54.241Z,24.13
2022-08-16T22:38:54.700Z,24.12
2022-08-16T22:41:14.573Z,24.11
2022-08-16T22:43:44.887Z,24.08
2022-08-16T22:46:14.113Z,23.55
2022-08-16T22:48:42.783Z,23.52
2022-08-16T22:51:10.143Z,23.52
2022-08-16T22:53:37.360Z,23.94
2022-08-16T22:56:04.841Z,24.02
2022-08-16T22:58:34.183Z,23.37
2022-08-16T23:01:08.415Z,23.94
2022-08-16T23:03:35.754Z,23.65
2022-08-16T23:06:06.063Z,23.91
2022-08-16T23:08:39.272Z,23.18
2022-08-16T23:11:22.739Z,23.87
2022-08-16T23:13:54.807Z,23.51
2022-08-16T23:16:33.397Z,22.95
2022-08-16T23:19:07.541Z,23.20
2022-08-16T23:21:35.044Z,23.74
2022-08-16T23:24:02.683Z,23.18
2022-08-16T23:26:44.722Z,23.71
2022-08-16T23:29:21.967Z,22.83
2022-08-16T23:31:58.430Z,22.86
2022-08-16T23:34:26.846Z,23.68
2022-08-16T23:36:54.091Z,23.65
2022-08-16T23:39:20.976Z,22.70
2022-08-16T23:41:51.131Z,22.91
2022-08-16T23:44:55.470Z,23.60
2022-08-16T23:47:06.140Z,23.58
2022-08-16T23:49:59.358Z,23.01
2022-08-16T23:52:42.336Z,23.52
2022-08-16T23:55:08.975Z,23.23
2022-08-16T23:57:40.414Z,23.35
